新東京国際空港の過去48時間の天気

新東京国際空港 (Tokyo/New Tokyo Intl)

現在時刻: 6/22 01:16 JST (6/21 16:16 UTC) 以下の時間は現地時間です。

過去48時間のMETAR気象情報
時間 風向 風速(m/s) 視程 気温(℃) 湿度(%) 気圧(hPa) 天気現象
22 01:00 北西 1 9000m 18 100 1004 地霧
22 00:30 静穏 0 9000m 18 100 1004 地霧
22 00:00 北西 1 9000m 19 100 1004 地霧
21 23:30 西 1 10km以上 19 100 1004 地霧
21 23:00 不定 1 10km以上 19 100 1004 地霧
21 22:30 不定 1 10km以上 20 100 1004 地霧
21 22:00 不定 1 10km以上 21 94 1004
21 21:30 南東 1 10km以上 21 94 1004
21 21:00 南南東 1 10km以上 20 100 1004
21 20:30 南東 1 10km以上 20 100 1004
21 20:00 南南東 1 10km以上 20 100 1003
21 19:30 南東 1 10km以上 20 100 1003
21 19:00 南東 2 10km以上 21 94 1003
21 18:30 南東 2 10km以上 21 94 1002
21 18:00 南東 2 10km以上 22 88 1002
21 17:30 南南東 3 10km以上 21 94 1002
21 17:00 南東 2 10km以上 21 94 1002
21 16:30 南東 3 10km以上 21 94 1002
21 16:00 南東 4 10km以上 21 88 1002
21 15:30 南東 4 10km以上 20 94 1002
21 15:00 南東 4 10km以上 21 88 1002
21 14:46 東南東 4 10km以上 21 88 1002
21 14:30 南南東 3 10km以上 22 83 1002
21 14:18 南東 4 10km以上 22 83 1002
21 14:00 南南東 4 10km以上 22 88 1002
21 13:30 3 10km以上 22 88 1002
21 13:00 3 10km以上 22 88 1002
21 12:30 3 10km以上 22 88 1002
21 12:00 3 10km以上 22 88 1002
21 11:30 南南東 3 10km以上 22 83 1002
21 11:00 3 10km以上 21 88 1003
21 10:30 南東 2 10km以上 21 88 1002
21 10:00 不定 2 10km以上 21 88 1002
21 09:30 北北東 2 10km以上 20 94 1002
21 09:13 北東 2 10km以上 20 94 1002
21 09:00 北北東 2 10km以上 20 88 1002 弱い雨
21 08:30 北東 2 10km以上 20 88 1002
21 08:00 北東 3 10km以上 20 88 1001
21 07:30 3 10km以上 20 88 1001
21 07:00 3 10km以上 19 94 1001
21 06:30 4 10km以上 19 94 1000
21 06:00 5 10km以上 19 94 1000
21 05:30 5 10km以上 18 100 1000
21 05:07 5 7000m 18 100 1000 弱いしゅう雨
21 05:00 5 4000m 18 100 999 弱いしゅう雨 もや
21 04:43 5 3500m 18 100 1000 しゅう雨 もや
21 04:30 5 3500m 18 100 999 弱いしゅう雨 もや
21 04:09 北北東 5 2600m 18 100 999 しゅう雨 もや
21 04:00 北北東 6 2800m 18 100 998 強いしゅう雨 もや
21 03:30 北東 6 3000m 18 100 999 強いしゅう雨 もや
21 03:00 北東 5 3000m 18 100 999 強いしゅう雨 もや
21 02:30 北北東 5 3000m 18 100 999 弱いしゅう雨 もや
21 02:00 北東 5 7000m 18 100 1000 弱いしゅう雨
21 01:30 北東 5 6000m 18 100 1000 弱いしゅう雨
21 01:00 北東 3 5000m 19 94 1000 弱いしゅう雨 もや
21 00:30 北東 4 8000m 19 94 1001 弱いしゅう雨
21 00:11 北東 4 8000m 19 94 1001 弱いしゅう雨
21 00:00 北北東 3 6000m 19 94 1001 しゅう雨
20 23:30 北東 4 8000m 19 94 1001 弱いしゅう雨
20 23:00 東北東 3 8000m 19 100 1002 弱いしゅう雨
20 22:50 2 8000m 19 100 1002 弱いしゅう雨
20 22:30 北東 3 8000m 19 94 1002 弱いしゅう雨
20 22:00 北東 2 8000m 19 100 1003 弱いしゅう雨
20 21:30 3 8000m 20 94 1003 弱いしゅう雨
20 21:09 北北東 3 8000m 19 100 1002 弱いしゅう雨
20 21:00 北北東 3 8000m 19 100 1002 弱いしゅう雨
20 20:46 北北東 3 8000m 19 100 1002 弱いしゅう雨
20 20:30 北北東 4 8000m 19 100 1001 弱いしゅう雨
20 20:23 北北東 4 8000m 20 94 1001 弱いしゅう雨
20 20:00 4 10km以上 20 94 1001
20 19:30 6 8000m 20 94 1001
20 19:16 6 8000m 20 94 1001
20 19:00 北北西 4 8000m 20 100 1002 弱いしゅう雨
20 18:42 北北西 4 6000m 20 100 1001 弱いしゅう雨
20 18:30 北北西 5 4500m 20 100 1001 弱いしゅう雨 もや
20 18:00 北北西 3 3500m 20 100 1001 弱い霧雨 もや
20 17:30 北北西 4 3200m 21 94 1000 弱い霧雨 もや
20 17:00 西北西 3 2400m 22 94 1000 もや
20 16:30 西 3 10km以上 23 94 1000 周辺でしゅう雨
20 16:00 西 3 10km以上 23 94 1000
20 15:30 西 2 10km以上 23 94 1000
20 15:00 不定 1 7000m 22 100 1000
20 14:30 3 6000m 22 100 1001 弱いしゅう雨
20 14:00 東南東 5 5000m 21 100 1001 弱いしゅう雨 もや
20 13:30 4 5000m 21 100 1001 弱いしゅう雨 もや
20 13:10 東南東 5 7000m 21 100 1002 弱いしゅう雨
20 13:00 5 4000m 21 100 1002 しゅう雨 もや
20 12:38 5 6000m 21 94 1003 弱いしゅう雨
20 12:30 東南東 5 4000m 21 94 1003 弱いしゅう雨 もや
20 12:15 東南東 5 3500m 21 100 1003 弱いしゅう雨 もや
20 12:00 東南東 5 3000m 21 94 1003 しゅう雨 もや
20 11:30 南東 2 4000m 21 94 1005 しゅう雨 もや
20 11:00 3 3500m 21 94 1005 しゅう雨 もや
20 10:47 南南東 5 3000m 21 94 1005 強いしゅう雨 もや
20 10:30 南東 6 3000m 21 94 1005 しゅう雨 もや
20 10:00 南東 4 6000m 21 100 1005 弱いしゅう雨
20 09:30 南東 6 4000m 21 94 1005 しゅう雨 もや
20 09:19 東南東 5 4000m 21 94 1005 しゅう雨 もや
20 09:00 南東 5 10km以上 21 94 1005 弱いしゅう雨
20 08:30 南東 5 8000m 21 94 1006 弱いしゅう雨
20 08:00 東南東 5 6000m 21 94 1006 弱いしゅう雨
20 07:47 東南東 5 4000m 20 100 1006 弱いしゅう雨 もや
20 07:35 東南東 5 3500m 20 100 1006 しゅう雨 もや
20 07:00 東南東 5 6000m 20 100 1007 弱い雨
20 06:30 東南東 5 6000m 20 100 1007 弱い雨
20 06:00 東南東 4 5000m 20 100 1007 弱い雨 もや
20 05:30 東南東 4 4000m 20 100 1007 弱い雨 もや
20 05:00 東南東 3 4000m 20 94 1008 弱い雨 もや
20 04:30 東南東 4 5000m 19 100 1008 弱い雨 もや
20 04:00 東南東 4 7000m 19 100 1008 弱い雨
20 03:30 東南東 3 7000m 19 100 1008 もや
20 03:00 東南東 3 6000m 19 100 1008 もや
20 02:30 東南東 4 5000m 19 100 1009 もや
20 02:00 東南東 3 5000m 19 100 1009 もや
20 01:30 東南東 2 7000m 19 100 1009
RJAA 211600Z 31002KT 9000 R16R/0550VP2000D R16L/P2000N MIFG FEW015 18/18 Q1004 TEMPO 4000 BR RMK 1CU015 A2967
RJAA 211530Z 00000KT 9000 R16R/P2000N R16L/0550VP2000D MIFG FEW015 18/18 Q1004 TEMPO 4000 BR
RJAA 211500Z 31001KT 9000 R16R/P2000N R16L/0900VP2000U MIFG FEW020 SCT/// 19/19 Q1004 TEMPO 4000 BR
RJAA 211430Z 27001KT 9999 R16R/P2000N R16L/P2000N MIFG FEW020 BKN/// 19/19 Q1004 NOSIG
RJAA 211400Z VRB01KT 9999 MIFG FEW020 BKN/// 19/19 Q1004 BECMG 32005KT RMK 1SC020 A2966
RJAA 211330Z VRB02KT 9999 MIFG FEW020 BKN/// 20/20 Q1004 BECMG 32005KT
RJAA 211300Z VRB02KT 9999 BKN023 21/20 Q1004 NOSIG RMK 7SC023 A2965
RJAA 211230Z 14002KT 9999 BKN025 21/20 Q1004 NOSIG RMK 7SC025 A2966
RJAA 211200Z 15002KT 9999 FEW015 BKN025 20/20 Q1004 NOSIG RMK 1CU015 7CU025 A2966
RJAA 211130Z 14002KT 9999 FEW015 BKN025 20/20 Q1004 NOSIG RMK 1CU015 7CU025 A2965
RJAA 211100Z 15002KT 9999 FEW015 BKN030 20/20 Q1003 NOSIG RMK 1CU015 7CU030 A2964
RJAA 211030Z 14002KT 9999 FEW015 BKN030 BKN/// 20/20 Q1003 NOSIG
RJAA 211000Z 14003KT 9999 FEW015 BKN020 BKN/// 21/20 Q1003 NOSIG RMK 2CU015 5CU020 A2963
RJAA 210930Z 14004KT 9999 FEW015 BKN/// 21/20 Q1002 NOSIG RMK 1CU015 A2961
RJAA 210900Z 14004KT 120V180 9999 FEW020 BKN/// 22/20 Q1002 NOSIG RMK 1SC020 A2960
RJAA 210830Z 15006KT 9999 FEW020 BKN/// 21/20 Q1002 NOSIG
RJAA 210800Z 14004KT 100V180 9999 FEW015 SCT030 BKN/// 21/20 Q1002 NOSIG
RJAA 210730Z 13006KT 9999 FEW008 BKN020 21/20 Q1002 NOSIG RMK 2ST008 7SC020 A2960
RJAA 210700Z 14008KT 9999 FEW008 BKN010 BKN020 21/19 Q1002 BECMG FEW010 BKN015
RJAA 210630Z 14008KT 9999 FEW009 SCT012 BKN014 20/19 Q1002 BECMG FEW010 BKN015
RJAA 210600Z 14007KT 9999 FEW010 BKN015 21/19 Q1002 NOSIG RMK 1CU010 6SC015 A2959
RJAA 210546Z 12007KT 9999 FEW010 SCT016 BKN020 21/19 Q1002 RMK 1CU010 3SC016 6SC020 A2961
RJAA 210530Z 15006KT 120V180 9999 FEW010 BKN013 BKN025 22/19 Q1002 BECMG FEW010 SCT013
RJAA 210518Z 14008KT 9999 FEW010 BKN013 BKN030 22/19 Q1002 RMK 1CU010 5CU013 6SC030 A2961
RJAA 210500Z 15008KT 9999 FEW010 SCT013 BKN030 22/20 Q1002 NOSIG RMK 1CU010 4CU013 6SC030 A2961 MOD TURB OBS AT 0436Z 50NM S NARITA 13000FT IN DES A321 HKE848
RJAA 210430Z 18005KT 150V230 9999 FEW010 SCT013 BKN035 22/20 Q1002 NOSIG RMK 1CU010 4CU013 6SC035 A2961
RJAA 210400Z 19006KT 9999 FEW010 SCT013 BKN040 22/20 Q1002 NOSIG RMK 1CU010 3CU013 6SC040 A2960
RJAA 210330Z 17006KT 140V210 9999 SCT010 BKN045 22/20 Q1002 NOSIG RMK 3CU010 6SC045 A2961
RJAA 210300Z 18006KT 9999 FEW008 SCT010 BKN045 22/20 Q1002 NOSIG RMK 1ST008 3CU010 6SC045 A2961
RJAA 210230Z 15006KT 100V180 9999 FEW008 BKN045 22/19 Q1002 NOSIG RMK 2ST008 6SC045 A2961
RJAA 210200Z 19005KT 150V230 9999 FEW008 SCT010 BKN045 21/19 Q1003 NOSIG RMK 1ST008 3CU010 7SC045 A2962
RJAA 210130Z 14004KT 100V180 9999 FEW008 BKN060 21/19 Q1002 NOSIG RMK 1ST008 7SC060 A2961
RJAA 210100Z VRB03KT 9999 FEW008 BKN060 21/19 Q1002 BECMG 16005KT RMK 1ST008 7SC060 A2961
RJAA 210030Z 03003KT 340V060 9999 FEW007 SCT010 BKN060 20/19 Q1002 BECMG 16005KT
RJAA 210013Z 05003KT 360V090 9999 FEW006 SCT009 BKN060 20/19 Q1002 RMK 1ST006 3CU009 7SC060 A2959
RJAA 210000Z 02004KT 330V050 9999 -RA FEW006 BKN008 BKN060 20/18 Q1002 BECMG 16005KT FEW005 SCT010 RMK 2ST006 5ST008 7SC060 A2959
RJAA 202330Z 04004KT 360V080 9999 FEW006 SCT007 BKN060 20/18 Q1002 BECMG 16005KT
RJAA 202300Z 04005KT 9999 FEW006 BKN060 BKN070 20/18 Q1001 TEMPO FEW004 BKN008
RJAA 202230Z 36006KT 9999 FEW006 BKN060 BKN070 20/18 Q1001 TEMPO FEW004 BKN008
RJAA 202200Z 35005KT 310V030 9999 FEW004 SCT006 BKN060 19/18 Q1001 TEMPO FEW004 BKN008
RJAA 202130Z 01007KT 9999 FEW003 BKN006 BKN015 19/18 Q1000 NOSIG RMK 1ST003 5ST006 7CU015 A2955
RJAA 202100Z 35009KT 9999 FEW003 BKN006 BKN015 19/18 Q1000 NOSIG RMK 1ST003 5ST006 7CU015 A2954
RJAA 202030Z 36010KT 9999 FEW003 SCT004 BKN006 18/18 Q1000 TEMPO FEW002 BKN004
RJAA 202007Z 01009KT 7000 -SHRA FEW003 BKN004 18/18 Q1000 RMK 1ST003 7ST004 A2953
RJAA 202000Z 01010KT 4000 -SHRA BR FEW003 BKN004 18/18 Q0999 NOSIG RMK 1ST003 7ST004 A2952
RJAA 201943Z 36009KT 3500 SHRA BR FEW003 BKN004 18/18 Q1000 RMK 2ST003 7ST004 A2953
RJAA 201930Z 01010KT 3500 -SHRA BR FEW003 BKN004 18/18 Q0999 NOSIG RMK 2ST003 7ST004 A2952
RJAA 201909Z 02010KT 2600 SHRA BR FEW002 BKN003 BKN015 18/18 Q0999 RMK 1ST002 5ST003 6CU015 A2950
RJAA 201900Z 03012KT 2800 +SHRA BR FEW002 BKN003 BKN015 18/18 Q0998 BECMG 4000 -SHRA BR RMK 1ST002 5ST003 6CU015 A2950 RI++
RJAA 201830Z 05011KT 3000 +SHRA BR FEW002 BKN003 BKN015 18/18 Q0999 NOSIG RMK 1ST002 5ST003 6CU015 A2951
RJAA 201800Z 05009KT 3000 +SHRA BR FEW002 BKN003 BKN015 18/18 Q0999 NOSIG RMK 1ST002 5ST003 7CU015 A2952
RJAA 201730Z 03009KT 3000 -SHRA BR FEW003 BKN004 BKN015 18/18 Q0999 NOSIG RMK 2ST003 6ST004 7CU015 A2952
RJAA 201700Z 04009KT 7000 -SHRA FEW003 BKN004 BKN015 18/18 Q1000 TEMPO 3000 SHRA BR RMK 2ST003 5ST004 7CU015 A2953
RJAA 201630Z 04009KT 6000 -SHRA FEW003 BKN004 BKN015 18/18 Q1000 TEMPO 4000 -SHRA BR
RJAA 201600Z 04006KT 5000 -SHRA BR FEW003 BKN004 19/18 Q1000 TEMPO 4000 -SHRA BR RMK 2ST003 7ST004 A2955
RJAA 201530Z 04007KT 8000 -SHRA FEW003 BKN004 BKN015 19/18 Q1001 NOSIG RMK 2ST003 5ST004 7CU015 A2957
RJAA 201511Z 04007KT 010V070 8000 -SHRA FEW003 BKN004 BKN015 19/18 Q1001 RMK 2ST003 5ST004 7CU015 A2957
RJAA 201500Z 03006KT 360V070 6000 SHRA FEW003 BKN004 BKN015 19/18 Q1001 TEMPO 3000 SHRA BR RMK 2ST003 5ST004 7CU015 A2959
RJAA 201430Z 05007KT 8000 -SHRA FEW003 BKN004 BKN015 19/18 Q1001 TEMPO 3000 SHRA BR
RJAA 201400Z 07005KT 8000 -SHRA FEW003 BKN005 BKN025 19/19 Q1002 TEMPO 3000 SHRA BR RMK 2ST003 5ST005 7CU025 A2959
RJAA 201350Z 09003KT 060V160 8000 -SHRA FEW003 BKN005 BKN025 19/19 Q1002 RMK 1ST003 6ST005 7CU025 A2961
RJAA 201330Z 04005KT 360V080 8000 -SHRA FEW003 SCT005 BKN025 19/18 Q1002 TEMPO 4000 -SHRA BR FEW002 BKN004
RJAA 201300Z 05004KT 010V080 8000 -SHRA FEW003 SCT006 BKN030 19/19 Q1003 TEMPO 4000 -SHRA BR FEW002 BKN004 RMK 1ST003 4ST006 7CU030 A2962
RJAA 201230Z 01005KT 8000 -SHRA FEW003 SCT004 BKN006 20/19 Q1003 TEMPO 4000 -SHRA BR FEW002 BKN004 RMK 1ST003 4ST004 7ST006 A2962
RJAA 201209Z 02005KT 8000 -SHRA FEW003 SCT004 BKN006 19/19 Q1002 RMK 1ST003 3ST004 7ST006 A2961
RJAA 201200Z 03005KT 8000 -SHRA FEW003 BKN004 BKN005 19/19 Q1002 TEMPO 4000 -SHRA BR RMK 1ST003 5ST004 6ST005 A2960
RJAA 201146Z 03006KT 8000 -SHRA FEW003 BKN004 BKN005 19/19 Q1002 RMK 2ST003 5ST004 6ST005 A2959
RJAA 201130Z 02008KT 8000 -SHRA BKN003 BKN004 19/19 Q1001 TEMPO 4000 -SHRA BR RMK 5ST003 7ST004 A2959
RJAA 201123Z 02008KT 8000 -SHRA BKN003 BKN004 20/19 Q1001 RMK 5ST003 7ST004 A2959
RJAA 201100Z 01008KT 350V060 9999 SCT003 BKN004 20/19 Q1001 TEMPO 4000 -SHRA BR
RJAA 201030Z 35011KT 8000 FEW002 BKN003 BKN004 20/19 Q1001 TEMPO 4000 -SHRA BR
RJAA 201016Z 35011KT 8000 FEW002 BKN003 BKN004 20/19 Q1001 RMK 1ST002 5ST003 6ST004 A2959
RJAA 201000Z 33008KT 8000 -SHRA FEW002 SCT003 BKN005 20/20 Q1002 TEMPO 4000 -SHRA BR RMK 1ST002 3ST003 6ST005 A2959
RJAA 200942Z 34008KT 6000 -SHRA FEW002 BKN003 BKN004 20/20 Q1001 RMK 1ST002 5ST003 7ST004 A2958
RJAA 200930Z 33009KT 4500 -SHRA BR FEW002 BKN003 BKN004 20/20 Q1001 NOSIG RMK 1ST002 6ST003 7ST004 A2958
RJAA 200900Z 33006KT 3500 -DZ BR SCT002 BKN003 20/20 Q1001 TEMPO 3000 -RA BR
RJAA 200830Z 33007KT 3200 -DZ BR FEW001 SCT002 BKN003 21/20 Q1000 TEMPO 2500 -RA BR
RJAA 200800Z 30006KT 260V340 2400 BR SCT001 BKN002 22/21 Q1000 NOSIG RMK 4ST001 7ST002 A2954
RJAA 200730Z 28006KT 9999 VCSH BKN003 BKN010 23/22 Q1000 NOSIG RMK 5ST003 7CU010 A2954
RJAA 200700Z 26005KT 220V300 9999 FEW004 BKN010 BKN015 23/22 Q1000 TEMPO FEW005 BKN008 RMK 1ST004 5CU010 7CU015 A2954
RJAA 200630Z 26003KT 220V310 9999 FEW004 BKN010 BKN015 23/22 Q1000 BECMG 12005KT TEMPO FEW005 BKN008
RJAA 200600Z VRB02KT 7000 FEW002 SCT004 BKN010 22/22 Q1000 BECMG 12005KT TEMPO 4000 -SHRA BR FEW002 BKN004
RJAA 200530Z VRB05KT 6000 -SHRA FEW002 BKN004 BKN015 22/22 Q1001 BECMG 12005KT TEMPO 4000 -SHRA BR
RJAA 200500Z 11009KT 5000 -SHRA BR FEW002 BKN004 21/21 Q1001 TEMPO 4000 -SHRA BR
RJAA 200430Z 10008KT 5000 -SHRA BR FEW003 BKN004 21/21 Q1001 TEMPO 4000 -SHRA BR
RJAA 200410Z 11010KT 7000 R16R/P2000N R16L/P2000N -SHRA FEW003 BKN004 21/21 Q1002 RMK 1ST003 7ST004 A2959
RJAA 200400Z 09009KT 4000 R16R/2000N R16L/P2000N SHRA BR FEW003 BKN004 21/21 Q1002 NOSIG RMK 1ST003 7ST004 A2960
RJAA 200338Z 10009KT 6000 -SHRA FEW003 BKN004 BKN015 21/20 Q1003 RMK 1ST003 6ST004 7CU015 A2962
RJAA 200330Z 11009KT 4000 -SHRA BR FEW003 BKN004 BKN015 21/20 Q1003 NOSIG RMK 1ST003 6ST004 7CU015 A2962 MOD TURB OBS AT 0324Z 10NM S BINKS BTN 13000FT AND 12000FT IN DES A320 VNL800
RJAA 200315Z 12009KT 080V150 3500 R16R/2000N R16L/P2000N -SHRA BR FEW003 BKN004 BKN015 21/21 Q1003 RMK 2ST003 5ST004 6CU015 A2963
RJAA 200300Z 12009KT 090V150 3000 R16R/P2000N R16L/P2000N SHRA BR FEW004 BKN007 BKN030 21/20 Q1003 TEMPO FEW002 BKN004
RJAA 200230Z 14004KT 100V170 4000 SHRA BR FEW004 BKN007 BKN020 21/20 Q1005 TEMPO 3000 SHRA BR FEW002 BKN004
RJAA 200200Z 18006KT 140V210 3500 SHRA BR FEW004 BKN007 BKN020 21/20 Q1005 TEMPO 3000 SHRA BR FEW002 BKN004 RMK 1ST004 6ST007 7CU020 A2969
RJAA 200147Z 16009KT 3000 R16R/P2000N R16L/P2000N +SHRA BR FEW004 BKN006 BKN020 21/20 Q1005 RMK 1ST004 6ST006 7CU020 A2969
RJAA 200130Z 14012KT 100V170 3000 R16R/P2000N R16L/P2000N SHRA BR FEW004 BKN006 BKN015 21/20 Q1005 TEMPO FEW002 BKN004
RJAA 200100Z 13008KT 6000 -SHRA FEW004 BKN006 21/21 Q1005 TEMPO 3000 SHRA BR FEW002 BKN004 RMK 2ST004 7ST006 A2969
RJAA 200030Z 13011KT 4000 R16R/P2000N R16L/P2000N SHRA BR FEW005 BKN008 BKN020 21/20 Q1005 TEMPO 3000 SHRA BR FEW002 BKN004
RJAA 200019Z 12009KT 4000 R16R/P2000N R16L/P2000N SHRA BR FEW005 BKN008 BKN020 21/20 Q1005 RMK 1ST005 5ST008 6CU020 A2970
RJAA 200000Z 13010KT 9999 -SHRA FEW005 BKN008 BKN020 21/20 Q1005 TEMPO 3000 SHRA BR FEW002 BKN004
RJAA 192330Z 13010KT 8000 -SHRA FEW004 BKN006 BKN015 21/20 Q1006 TEMPO 3000 SHRA BR
RJAA 192300Z 12010KT 6000 -SHRA FEW003 BKN005 BKN013 21/20 Q1006 NOSIG RMK 1ST003 5ST005 7CU013 A2972
RJAA 192247Z 12009KT 4000 -SHRA BR FEW003 BKN004 BKN013 20/20 Q1006 RMK 2ST003 6ST004 7CU013 A2972
RJAA 192235Z 12009KT 3500 SHRA BR FEW003 BKN004 BKN013 20/20 Q1006 RMK 2ST003 6ST004 7CU013 A2973
RJAA 192200Z 12009KT 6000 -RA SCT003 BKN004 BKN035 20/20 Q1007 NOSIG RMK 3ST003 6ST004 7CU035 A2974
RJAA 192130Z 12009KT 6000 -RA FEW002 SCT003 BKN004 20/20 Q1007 NOSIG RMK 1ST002 3ST003 7ST004 A2975
RJAA 192100Z 11008KT 5000 -RA BR FEW002 SCT003 BKN004 20/20 Q1007 NOSIG RMK 1ST002 3ST003 7ST004 A2976
RJAA 192030Z 11007KT 4000 -RA BR FEW002 SCT003 BKN004 20/20 Q1007 BECMG 6000 -RA
RJAA 192000Z 12006KT 4000 -RA BR FEW003 BKN004 BKN040 20/19 Q1008 NOSIG RMK 2ST003 5ST004 7SC040 A2977
RJAA 191930Z 11007KT 5000 -RA BR FEW003 BKN005 BKN040 19/19 Q1008 TEMPO 4500 -RA BR
RJAA 191900Z 11007KT 7000 -RA FEW003 BKN006 BKN040 19/19 Q1008 TEMPO 4500 -RA BR
RJAA 191830Z 12005KT 7000 BR FEW002 BKN003 BKN040 19/19 Q1008 NOSIG RMK 1ST002 5ST003 7SC040 A2979 BR S
RJAA 191800Z 12005KT 6000 BR FEW002 BKN003 BKN004 19/19 Q1008 NOSIG RMK 1ST002 6ST003 7ST004 A2979 BR S
RJAA 191730Z 11007KT 5000 BR FEW002 BKN003 19/19 Q1009 NOSIG RMK 2ST002 7ST003 A2979
RJAA 191700Z 11006KT 5000 BR FEW002 BKN003 BKN004 19/19 Q1009 NOSIG RMK 1ST002 6ST003 7ST004 A2980
RJAA 191630Z 11004KT 7000 BKN003 BKN150 19/19 Q1009 BECMG SCT003 BKN040